createdAt,value
2022-10-29T00:02:35.756Z,100.00
2022-10-29T00:08:15.669Z,99.92
2022-10-29T00:13:56.644Z,99.96
2022-10-29T00:19:36.688Z,99.96
2022-10-29T00:25:23.697Z,100.00
2022-10-29T00:31:03.635Z,100.00
2022-10-29T00:36:44.677Z,99.99
2022-10-29T00:42:30.696Z,99.97
2022-10-29T00:48:10.718Z,99.88
2022-10-29T00:53:55.732Z,99.97
2022-10-29T00:59:35.676Z,99.84
2022-10-29T01:05:17.730Z,99.77
2022-10-29T01:11:08.669Z,99.86
2022-10-29T01:16:56.675Z,99.81
2022-10-29T01:22:42.744Z,100.00
2022-10-29T01:28:36.832Z,100.00
2022-10-29T01:34:26.731Z,100.00
2022-10-29T01:40:15.767Z,100.00
2022-10-29T01:46:02.750Z,100.00
2022-10-29T01:51:45.731Z,100.00
2022-10-29T01:57:46.781Z,100.00
2022-10-29T02:03:39.697Z,100.00
2022-10-29T02:09:26.701Z,100.00
2022-10-29T02:15:11.869Z,100.00
2022-10-29T02:20:57.713Z,100.00
2022-10-29T02:26:37.689Z,100.00
2022-10-29T02:32:17.725Z,100.00
2022-10-29T02:37:57.753Z,100.00
2022-10-29T02:43:37.725Z,100.00
2022-10-29T02:49:17.751Z,100.00
2022-10-29T02:54:57.760Z,100.00
2022-10-29T03:00:37.759Z,100.00
2022-10-29T03:06:24.778Z,100.00
2022-10-29T03:12:04.799Z,100.00
2022-10-29T03:17:44.972Z,100.00
2022-10-29T03:23:24.835Z,100.00
2022-10-29T03:29:11.743Z,100.00
2022-10-29T03:34:55.966Z,100.00
2022-10-29T03:40:38.778Z,100.00
2022-10-29T03:46:18.763Z,100.00
2022-10-29T03:51:58.787Z,100.00
2022-10-29T03:57:38.856Z,100.00
2022-10-29T04:03:18.812Z,100.00
2022-10-29T04:08:59.779Z,100.00
2022-10-29T04:14:44.508Z,100.00
2022-10-29T04:20:45.342Z,100.00
2022-10-29T04:32:24.733Z,99.81
2022-10-29T04:38:04.803Z,99.21
2022-10-29T04:43:45.957Z,98.52
2022-10-29T04:49:25.984Z,97.68
2022-10-29T04:55:05.817Z,96.98
2022-10-29T05:00:45.889Z,96.19
2022-10-29T05:06:25.821Z,95.49
2022-10-29T05:12:05.813Z,94.75
2022-10-29T05:17:49.833Z,94.31
2022-10-29T05:23:29.789Z,93.98
2022-10-29T05:29:09.864Z,93.49
2022-10-29T05:34:49.871Z,92.97
2022-10-29T05:40:29.851Z,92.72
2022-10-29T05:46:09.916Z,92.57
2022-10-29T05:51:49.780Z,92.16
2022-10-29T05:57:29.834Z,91.91
2022-10-29T06:03:09.866Z,91.49
2022-10-29T06:08:49.818Z,91.23
2022-10-29T06:14:29.846Z,91.06
2022-10-29T06:20:09.903Z,90.83
2022-10-29T06:25:49.867Z,90.53
2022-10-29T06:31:36.820Z,90.36
2022-10-29T06:37:16.837Z,90.31
2022-10-29T06:42:56.824Z,90.04
2022-10-29T06:48:37.808Z,89.71
2022-10-29T06:54:17.825Z,89.12
2022-10-29T06:59:57.945Z,88.36
2022-10-29T07:05:37.825Z,87.25
2022-10-29T07:11:17.968Z,86.30
2022-10-29T07:17:16.891Z,85.55
2022-10-29T07:23:01.911Z,84.43
2022-10-29T07:28:42.043Z,82.47
2022-10-29T07:34:21.891Z,78.72
2022-10-29T07:40:01.924Z,73.80
2022-10-29T07:45:41.905Z,68.90
2022-10-29T07:51:21.933Z,64.79
2022-10-29T07:56:59.908Z,60.31
2022-10-29T08:02:39.892Z,58.73
2022-10-29T08:08:23.871Z,58.07
2022-10-29T08:14:04.906Z,58.34
2022-10-29T08:19:44.917Z,59.66
2022-10-29T08:25:26.007Z,59.90
2022-10-29T08:31:05.921Z,60.80
2022-10-29T08:36:45.901Z,62.23
2022-10-29T08:42:37.963Z,63.00
2022-10-29T08:48:37.948Z,64.14
2022-10-29T08:54:30.255Z,64.73
2022-10-29T09:00:18.983Z,64.57
2022-10-29T09:06:20.899Z,61.65
2022-10-29T09:12:12.934Z,60.94
2022-10-29T09:18:02.004Z,60.97
2022-10-29T09:23:59.040Z,62.19
2022-10-29T09:29:55.027Z,62.30
2022-10-29T09:35:51.921Z,62.80
2022-10-29T09:41:32.951Z,63.99
2022-10-29T09:47:19.952Z,64.74
2022-10-29T09:53:01.979Z,64.95
2022-10-29T09:58:43.016Z,64.79
2022-10-29T10:04:32.948Z,64.80
2022-10-29T10:10:14.937Z,66.51
2022-10-29T10:16:01.991Z,68.93
2022-10-29T10:21:44.983Z,70.88
2022-10-29T10:27:42.992Z,72.26
2022-10-29T10:33:36.030Z,73.88
2022-10-29T10:39:16.014Z,75.03
2022-10-29T10:45:03.220Z,76.17
2022-10-29T10:50:46.981Z,77.41
2022-10-29T10:56:34.032Z,78.17
2022-10-29T11:02:16.162Z,78.49
2022-10-29T11:08:02.004Z,77.43
2022-10-29T11:13:46.010Z,76.58
2022-10-29T11:19:36.803Z,75.60
2022-10-29T11:25:19.130Z,75.35
2022-10-29T11:31:05.127Z,75.36
2022-10-29T11:36:50.026Z,75.55
2022-10-29T11:42:30.023Z,76.04
2022-10-29T11:54:18.075Z,77.11
2022-10-29T12:00:15.081Z,77.63
2022-10-29T12:06:00.227Z,77.65
2022-10-29T12:11:47.052Z,77.59
2022-10-29T12:17:32.110Z,77.39
2022-10-29T12:23:17.339Z,77.35
2022-10-29T12:29:06.032Z,77.24
2022-10-29T12:34:52.078Z,77.68
2022-10-29T12:40:44.178Z,78.14
2022-10-29T12:46:33.232Z,78.90
2022-10-29T12:52:17.081Z,79.43
2022-10-29T12:57:57.098Z,79.33
2022-10-29T13:04:11.044Z,79.76
2022-10-29T13:09:52.092Z,79.68
2022-10-29T13:15:30.224Z,79.79
2022-10-29T13:21:10.208Z,79.88
2022-10-29T13:27:11.075Z,78.79
2022-10-29T13:32:52.280Z,78.27
2022-10-29T13:38:32.098Z,78.30
2022-10-29T13:44:16.270Z,78.31
2022-10-29T13:49:59.213Z,78.33
2022-10-29T13:55:39.107Z,78.14
2022-10-29T14:01:28.238Z,78.42
2022-10-29T14:07:13.062Z,78.86
2022-10-29T14:12:55.438Z,79.04
2022-10-29T14:18:40.139Z,79.26
2022-10-29T14:24:22.127Z,79.51
2022-10-29T14:30:02.131Z,80.07
2022-10-29T14:35:43.140Z,80.58
2022-10-29T14:41:21.171Z,81.19
2022-10-29T14:47:09.321Z,81.70
2022-10-29T14:52:53.826Z,82.11
2022-10-29T14:58:39.116Z,82.38
2022-10-29T15:04:19.209Z,82.99
2022-10-29T15:10:00.155Z,83.71
2022-10-29T15:15:45.180Z,83.87
2022-10-29T15:21:25.127Z,84.50
2022-10-29T15:27:09.223Z,85.05
2022-10-29T15:32:49.182Z,85.37
2022-10-29T15:38:54.225Z,85.66
2022-10-29T15:44:50.191Z,86.07
2022-10-29T15:50:32.174Z,86.56
2022-10-29T15:56:12.191Z,86.69
2022-10-29T16:01:52.274Z,86.86
2022-10-29T16:07:32.181Z,87.05
2022-10-29T16:13:13.192Z,87.35
2022-10-29T16:18:53.448Z,87.52
2022-10-29T16:24:34.232Z,88.12
2022-10-29T16:30:14.248Z,88.60
2022-10-29T16:35:54.236Z,88.94
2022-10-29T16:41:35.184Z,89.47
2022-10-29T16:47:15.213Z,89.69
2022-10-29T16:52:55.240Z,90.00
2022-10-29T16:58:35.203Z,90.18
2022-10-29T17:04:16.266Z,90.51
2022-10-29T17:09:56.264Z,90.76
2022-10-29T17:15:37.205Z,91.17
2022-10-29T17:21:18.592Z,91.66
2022-10-29T17:26:58.199Z,92.03
2022-10-29T17:32:39.753Z,92.26
2022-10-29T17:38:19.233Z,92.71
2022-10-29T17:43:59.380Z,92.90
2022-10-29T17:49:40.743Z,93.10
2022-10-29T17:55:24.292Z,93.00
2022-10-29T18:31:31.029Z,90.38
2022-10-29T18:37:11.020Z,89.50
2022-10-29T18:42:51.077Z,90.35
2022-10-29T18:54:16.109Z,91.36
2022-10-29T18:59:56.096Z,92.09
2022-10-29T19:05:36.113Z,92.91
2022-10-29T19:11:26.049Z,93.69
2022-10-29T19:17:06.081Z,94.09
2022-10-29T19:22:47.083Z,94.62
2022-10-29T19:28:27.112Z,95.07
2022-10-29T19:34:09.117Z,95.47
2022-10-29T19:39:49.081Z,95.90
2022-10-29T19:45:29.214Z,95.73
2022-10-29T19:51:09.144Z,95.89
2022-10-29T19:56:50.191Z,96.20
2022-10-29T20:02:30.295Z,96.47
2022-10-29T20:08:13.066Z,96.38
2022-10-29T20:13:57.082Z,96.38
2022-10-29T20:19:37.185Z,96.43
2022-10-29T20:25:23.999Z,97.07
2022-10-29T20:31:04.133Z,97.37
2022-10-29T20:36:46.339Z,98.08
2022-10-29T20:42:26.138Z,98.05
2022-10-29T20:48:06.118Z,98.19
2022-10-29T20:53:46.144Z,98.62
2022-10-29T20:59:26.165Z,99.00
2022-10-29T21:05:06.139Z,98.95
2022-10-29T21:10:46.193Z,99.07
2022-10-29T21:16:36.193Z,99.30
2022-10-29T21:22:16.238Z,99.77
2022-10-29T21:27:56.511Z,99.92
2022-10-29T21:33:43.278Z,100.00
2022-10-29T21:39:23.151Z,99.97
2022-10-29T21:45:03.163Z,99.81
2022-10-29T21:50:43.216Z,99.71
2022-10-29T21:57:59.214Z,99.76
2022-10-29T22:04:21.278Z,99.22
2022-10-29T22:10:01.226Z,99.22
2022-10-29T22:15:41.232Z,99.23
2022-10-29T22:21:25.210Z,99.30
2022-10-29T22:27:05.251Z,99.47
2022-10-29T22:32:45.204Z,99.96
2022-10-29T22:38:25.219Z,100.00
2022-10-29T22:44:08.404Z,100.00
2022-10-29T22:49:48.229Z,99.94
2022-10-29T22:55:29.229Z,99.68
2022-10-29T23:01:18.410Z,99.35
2022-10-29T23:07:01.775Z,99.41
2022-10-29T23:12:42.288Z,99.60
2022-10-29T23:18:23.236Z,99.66
2022-10-29T23:24:03.255Z,99.73
2022-10-29T23:29:43.343Z,99.85
2022-10-29T23:35:24.267Z,99.95
2022-10-29T23:41:02.317Z,99.91
2022-10-29T23:46:42.297Z,99.85
2022-10-29T23:52:22.340Z,99.83
2022-10-29T23:58:02.304Z,99.75
